Time;durP1;ratioP1;P1;durP2;ratioP2;P2;SDS_P1;SDS_P2;PMS_P1;PMS_P2;Temp;Humidity;BMP_temperature;BMP_pressure;BME280_temperature;BME280_humidity;BME280_pressure;Samples;Min_cycle;Max_cycle;Signal;HPM_P1;HPM_P2
2021/12/20 00:00:38;;;;;;;33.95;4.93;;;6.50;99.90;;;;;;5032235;28;20030;-85
2021/12/20 00:03:04;;;;;;;28.40;4.68;;;6.40;99.90;;;;;;5015926;28;20099;-85
2021/12/20 00:05:30;;;;;;;25.25;4.30;;;6.40;99.90;;;;;;5013399;28;20033;-85
2021/12/20 00:07:58;;;;;;;30.77;4.68;;;6.50;99.90;;;;;;5002124;28;20041;-84
2021/12/20 00:10:24;;;;;;;25.13;4.43;;;6.50;99.90;;;;;;5020217;28;20484;-84
2021/12/20 00:12:50;;;;;;;28.40;5.22;;;6.50;99.90;;;;;;5016060;28;20095;-84
2021/12/20 00:15:17;;;;;;;26.50;4.93;;;6.50;99.90;;;;;;5018550;28;20045;-84
2021/12/20 00:17:43;;;;;;;27.88;5.03;;;6.50;99.90;;;;;;4999374;28;20037;-85
2021/12/20 00:20:09;;;;;;;22.33;4.68;;;6.40;99.90;;;;;;5003380;28;20048;-84
2021/12/20 00:22:39;;;;;;;24.05;4.68;;;6.40;99.90;;;;;;5001306;28;20175;-85
2021/12/20 00:25:06;;;;;;;24.98;4.07;;;6.40;99.90;;;;;;5017229;28;20077;-85
2021/12/20 00:27:32;;;;;;;23.92;4.85;;;6.40;99.90;;;;;;5013977;28;20124;-84
2021/12/20 00:29:58;;;;;;;22.75;4.68;;;6.40;99.90;;;;;;5013883;28;20041;-84
2021/12/20 00:32:24;;;;;;;27.50;4.63;;;6.40;99.90;;;;;;5015572;28;20052;-85
2021/12/20 00:34:50;;;;;;;32.65;5.80;;;6.40;99.90;;;;;;5005883;28;20029;-85
2021/12/20 00:42:45;;;;;;;28.15;4.97;;;6.30;99.90;;;;;;5014697;28;20049;-84
2021/12/20 00:45:12;;;;;;;29.05;4.70;;;6.30;99.90;;;;;;5015047;28;20125;-85
2021/12/20 00:47:38;;;;;;;25.70;4.60;;;6.30;99.90;;;;;;5017821;28;20544;-85
2021/12/20 00:50:09;;;;;;;22.58;4.38;;;6.30;99.90;;;;;;5017761;28;20072;-85
2021/12/20 00:52:35;;;;;;;24.08;4.57;;;6.30;99.90;;;;;;5015664;28;20033;-84
2021/12/20 00:55:01;;;;;;;21.35;4.45;;;6.30;99.90;;;;;;4999886;28;20512;-85
2021/12/20 00:57:28;;;;;;;28.50;5.05;;;6.30;99.90;;;;;;4984826;28;20232;-85
2021/12/20 00:59:54;;;;;;;31.33;5.80;;;6.30;99.90;;;;;;5015011;28;20048;-84
2021/12/20 01:02:20;;;;;;;23.88;4.60;;;6.30;99.90;;;;;;5000824;28;20041;-84
2021/12/20 01:04:45;;;;;;;21.58;3.90;;;6.30;99.90;;;;;;5018247;28;20033;-85
2021/12/20 01:07:11;;;;;;;23.80;4.35;;;6.30;99.90;;;;;;4998823;28;20049;-85
2021/12/20 01:09:37;;;;;;;30.92;4.15;;;6.30;99.90;;;;;;5010394;28;20101;-84
2021/12/20 01:12:06;;;;;;;27.85;5.05;;;6.20;99.90;;;;;;5000658;28;20049;-85
2021/12/20 01:14:35;;;;;;;25.60;4.20;;;6.20;99.90;;;;;;5033697;28;20042;-85
2021/12/20 01:17:05;;;;;;;31.20;4.40;;;6.20;99.90;;;;;;5000307;28;20040;-84
2021/12/20 01:19:36;;;;;;;23.15;3.47;;;6.10;99.90;;;;;;5014423;28;20049;-84
2021/12/20 01:22:03;;;;;;;24.35;5.20;;;6.10;99.90;;;;;;5010231;28;20095;-84
2021/12/20 01:24:29;;;;;;;22.30;3.90;;;6.10;99.90;;;;;;5005346;28;20137;-85
2021/12/20 01:26:55;;;;;;;19.67;3.33;;;6.10;99.90;;;;;;5002993;28;20046;-84
2021/12/20 01:29:22;;;;;;;17.30;3.42;;;6.10;99.90;;;;;;5033687;28;20350;-85
2021/12/20 01:31:48;;;;;;;18.42;3.33;;;6.20;99.90;;;;;;5000204;28;20041;-85
2021/12/20 01:34:13;;;;;;;20.17;3.47;;;6.40;99.90;;;;;;5016750;28;20041;-85
2021/12/20 01:36:39;;;;;;;16.67;3.20;;;6.30;99.90;;;;;;5013305;28;20040;-83
2021/12/20 01:39:06;;;;;;;14.77;2.92;;;6.30;99.90;;;;;;5001618;28;20180;-84
2021/12/20 01:41:32;;;;;;;15.00;2.92;;;6.30;99.90;;;;;;5014966;28;20048;-85
2021/12/20 01:43:58;;;;;;;14.20;2.83;;;6.20;99.90;;;;;;5000738;28;20029;-85
2021/12/20 01:46:24;;;;;;;12.35;2.53;;;6.10;99.90;;;;;;4996017;28;20038;-85
2021/12/20 01:48:50;;;;;;;12.80;2.70;;;6.10;99.90;;;;;;5002686;28;20412;-85
2021/12/20 01:51:44;;;;;;;14.23;2.45;;;6.10;99.90;;;;;;5011266;28;20036;-85
2021/12/20 01:54:09;;;;;;;8.55;2.28;;;6.10;99.90;;;;;;5017327;28;20540;-85
2021/12/20 01:56:39;;;;;;;14.27;2.60;;;6.20;99.90;;;;;;5001005;28;20061;-85
2021/12/20 01:59:06;;;;;;;11.18;2.85;;;6.20;99.90;;;;;;5017772;28;20388;-85
2021/12/20 02:01:32;;;;;;;14.05;2.78;;;6.20;99.90;;;;;;5001009;28;20123;-85
2021/12/20 02:04:01;;;;;;;13.23;3.60;;;6.20;99.90;;;;;;5013093;28;20052;-85
2021/12/20 02:06:39;;;;;;;12.32;2.63;;;6.20;99.90;;;;;;5010634;28;20326;-85
2021/12/20 02:09:10;;;;;;;15.20;2.83;;;6.20;99.90;;;;;;5002345;28;20462;-84
2021/12/20 02:11:37;;;;;;;14.55;2.17;;;6.10;99.90;;;;;;5013673;28;20036;-84
2021/12/20 02:14:04;;;;;;;8.52;1.77;;;6.10;99.90;;;;;;5000465;28;20040;-85
2021/12/20 02:16:30;;;;;;;9.13;2.05;;;6.10;99.90;;;;;;5000292;28;20590;-85
2021/12/20 02:18:55;;;;;;;10.05;2.30;;;6.00;99.90;;;;;;5000667;28;20060;-84
2021/12/20 02:21:21;;;;;;;15.02;2.28;;;6.00;99.90;;;;;;4996961;28;20033;-85
2021/12/20 02:23:48;;;;;;;13.70;2.55;;;5.90;99.90;;;;;;4998186;28;20085;-85
2021/12/20 02:26:18;;;;;;;9.57;2.45;;;5.90;99.90;;;;;;5016974;28;20432;-85
2021/12/20 02:28:46;;;;;;;11.82;2.13;;;5.80;99.90;;;;;;5017628;28;20041;-85
2021/12/20 02:39:08;;;;;;;10.57;2.05;;;5.70;99.90;;;;;;5017825;28;20530;-85
2021/12/20 02:41:34;;;;;;;10.77;1.75;;;5.70;99.90;;;;;;5016146;28;20076;-84
2021/12/20 02:44:06;;;;;;;10.30;2.47;;;5.70;99.90;;;;;;5011305;28;20034;-84
2021/12/20 02:49:08;;;;;;;10.57;2.53;;;5.70;99.90;;;;;;5036992;28;20063;-85
2021/12/20 02:51:35;;;;;;;7.47;2.10;;;5.70;99.90;;;;;;5016186;28;20091;-85
2021/12/20 02:54:04;;;;;;;10.10;2.33;;;5.70;99.90;;;;;;5004405;28;20061;-85
2021/12/20 02:56:30;;;;;;;10.07;2.25;;;5.70;99.90;;;;;;5009223;28;20434;-85
2021/12/20 02:58:56;;;;;;;11.20;2.92;;;5.60;99.90;;;;;;5020512;28;20121;-85
2021/12/20 03:01:23;;;;;;;11.68;2.65;;;5.60;99.90;;;;;;5003742;28;20041;-85
2021/12/20 03:03:51;;;;;;;10.68;2.40;;;5.50;99.90;;;;;;5038306;28;20041;-84
2021/12/20 03:06:18;;;;;;;13.55;2.70;;;5.60;99.90;;;;;;5012754;28;20515;-84
2021/12/20 03:08:48;;;;;;;9.95;2.75;;;5.60;99.90;;;;;;5016698;28;20492;-85
2021/12/20 03:11:14;;;;;;;11.68;2.72;;;5.60;99.90;;;;;;5015595;28;20080;-84
2021/12/20 03:13:41;;;;;;;15.32;2.85;;;5.50;99.90;;;;;;4999401;28;20045;-85
2021/12/20 03:16:07;;;;;;;8.73;2.28;;;5.50;99.90;;;;;;5000845;28;20512;-85
2021/12/20 03:18:33;;;;;;;8.85;2.08;;;5.50;99.90;;;;;;5002158;28;20380;-85
2021/12/20 03:20:58;;;;;;;13.55;2.05;;;5.40;99.90;;;;;;5013994;28;20033;-84
2021/12/20 03:23:24;;;;;;;12.30;2.40;;;5.40;99.90;;;;;;5003797;28;20052;-85
2021/12/20 03:25:50;;;;;;;16.30;3.30;;;5.40;99.90;;;;;;5017634;28;20120;-85
2021/12/20 03:28:15;;;;;;;11.60;2.25;;;5.40;99.90;;;;;;5015228;28;20565;-85
2021/12/20 03:30:41;;;;;;;10.25;2.15;;;5.50;99.90;;;;;;5004390;28;20091;-83
2021/12/20 03:33:07;;;;;;;12.10;2.47;;;5.50;99.90;;;;;;5033004;28;20044;-84
2021/12/20 03:35:32;;;;;;;10.65;2.30;;;5.40;99.90;;;;;;5000388;28;20033;-84
2021/12/20 03:37:58;;;;;;;15.20;2.90;;;5.30;99.90;;;;;;5017607;28;20037;-84
2021/12/20 03:40:24;;;;;;;16.90;3.55;;;5.20;99.90;;;;;;5003051;28;20030;-85
2021/12/20 03:42:50;;;;;;;13.20;2.65;;;5.20;99.90;;;;;;5003656;28;20448;-84
2021/12/20 03:45:16;;;;;;;14.75;2.78;;;5.10;99.90;;;;;;5000460;28;20436;-85
2021/12/20 03:47:43;;;;;;;12.57;2.25;;;5.00;99.90;;;;;;5003003;28;20099;-84
2021/12/20 03:50:10;;;;;;;11.75;2.35;;;4.90;99.90;;;;;;5002386;28;20041;-84
2021/12/20 03:52:38;;;;;;;14.60;2.25;;;4.90;99.90;;;;;;5001091;28;20054;-84
2021/12/20 03:55:06;;;;;;;9.63;2.50;;;4.80;99.90;;;;;;5001701;28;20068;-85
2021/12/20 03:57:33;;;;;;;14.60;2.78;;;4.70;99.90;;;;;;5015529;28;20038;-85
2021/12/20 03:59:58;;;;;;;14.57;2.40;;;4.70;99.90;;;;;;5001646;28;20575;-85
2021/12/20 04:02:25;;;;;;;14.05;2.42;;;4.60;99.90;;;;;;5001148;28;20045;-85
2021/12/20 04:04:51;;;;;;;10.35;2.30;;;4.50;99.90;;;;;;4999448;28;20053;-85
2021/12/20 04:07:17;;;;;;;14.07;2.65;;;4.40;99.90;;;;;;5014832;28;20056;-85
2021/12/20 04:09:42;;;;;;;8.70;2.50;;;4.40;99.90;;;;;;5016892;28;20076;-85
2021/12/20 04:12:09;;;;;;;12.05;2.50;;;4.40;99.90;;;;;;4999038;28;20060;-85
2021/12/20 04:14:34;;;;;;;13.20;2.63;;;4.30;99.90;;;;;;5000620;28;20040;-84
2021/12/20 04:17:00;;;;;;;14.63;2.60;;;4.30;99.90;;;;;;4998823;28;20406;-85
2021/12/20 04:19:26;;;;;;;10.95;2.33;;;4.20;99.90;;;;;;5001962;28;20540;-85
2021/12/20 04:21:51;;;;;;;12.05;2.95;;;4.10;99.90;;;;;;5012428;28;20524;-85
2021/12/20 04:24:17;;;;;;;12.23;2.33;;;4.10;99.90;;;;;;5002440;28;20036;-85
2021/12/20 04:26:43;;;;;;;8.90;2.08;;;4.10;99.90;;;;;;5017678;28;20172;-85
2021/12/20 04:29:09;;;;;;;12.88;2.42;;;4.10;99.90;;;;;;5017957;28;20361;-84
2021/12/20 04:31:36;;;;;;;29.77;3.03;;;4.00;99.90;;;;;;4999240;28;20064;-85
2021/12/20 04:34:02;;;;;;;14.10;2.72;;;3.90;99.90;;;;;;5003435;28;20095;-84
2021/12/20 04:36:33;;;;;;;12.45;1.98;;;3.90;99.90;;;;;;4998092;28;20068;-85
2021/12/20 04:38:59;;;;;;;9.75;2.85;;;3.90;99.90;;;;;;4999591;28;20436;-84
2021/12/20 04:41:24;;;;;;;16.17;3.33;;;3.80;99.90;;;;;;4999666;28;20042;-85
2021/12/20 04:43:50;;;;;;;12.20;2.65;;;3.70;99.90;;;;;;5013858;28;20431;-85
2021/12/20 04:46:16;;;;;;;15.05;2.25;;;3.70;99.90;;;;;;5001017;28;20633;-85
2021/12/20 04:48:41;;;;;;;13.43;2.47;;;3.70;99.90;;;;;;5032166;28;20038;-85
2021/12/20 04:51:07;;;;;;;11.57;2.80;;;3.60;99.90;;;;;;5012183;28;20033;-85
2021/12/20 04:53:32;;;;;;;15.13;2.90;;;3.50;99.90;;;;;;4998493;28;20164;-85
2021/12/20 04:55:58;;;;;;;13.15;2.47;;;3.40;99.90;;;;;;5001560;28;20149;-84
2021/12/20 04:58:24;;;;;;;10.05;2.35;;;3.30;99.90;;;;;;5016436;28;20152;-83
2021/12/20 05:00:49;;;;;;;14.57;3.00;;;3.20;99.90;;;;;;4998999;28;20096;-84
2021/12/20 05:03:15;;;;;;;14.27;3.13;;;3.30;99.90;;;;;;5014752;28;20044;-84
2021/12/20 05:05:41;;;;;;;9.98;1.80;;;3.20;99.90;;;;;;5001508;28;20068;-85
2021/12/20 05:08:07;;;;;;;15.23;2.88;;;3.10;99.90;;;;;;5015703;28;20424;-85
2021/12/20 05:10:34;;;;;;;16.30;2.40;;;3.00;99.90;;;;;;5018239;28;20037;-85
2021/12/20 05:13:05;;;;;;;7.60;1.80;;;3.10;99.90;;;;;;4999959;28;20034;-84
2021/12/20 05:15:33;;;;;;;13.98;2.65;;;2.80;99.90;;;;;;5014260;28;20076;-85
2021/12/20 05:17:59;;;;;;;16.45;2.80;;;2.70;99.90;;;;;;5001653;28;20044;-85
2021/12/20 05:20:26;;;;;;;10.13;2.30;;;2.70;99.90;;;;;;4999560;28;20433;-84
2021/12/20 05:22:55;;;;;;;11.25;2.72;;;2.70;99.90;;;;;;5010361;28;20045;-84
2021/12/20 05:25:23;;;;;;;14.10;2.72;;;2.80;99.90;;;;;;5015612;28;20053;-85
2021/12/20 05:27:49;;;;;;;15.35;2.58;;;2.80;99.90;;;;;;5014643;28;20109;-84
2021/12/20 05:30:16;;;;;;;13.25;3.13;;;2.80;99.90;;;;;;5013602;28;20423;-85
2021/12/20 05:32:43;;;;;;;8.63;2.58;;;2.70;99.90;;;;;;4999862;28;20103;-85
2021/12/20 05:35:10;;;;;;;11.43;2.25;;;2.70;99.90;;;;;;4999554;28;20508;-85
2021/12/20 05:37:36;;;;;;;17.70;3.13;;;2.70;99.90;;;;;;5013416;28;20047;-84
2021/12/20 05:40:04;;;;;;;12.55;2.50;;;2.60;99.90;;;;;;5013024;28;20033;-84
2021/12/20 05:42:30;;;;;;;9.30;2.45;;;2.60;99.90;;;;;;5005262;28;20050;-84
2021/12/20 05:44:56;;;;;;;13.95;2.85;;;2.40;99.90;;;;;;5014015;28;20115;-85
2021/12/20 05:47:22;;;;;;;13.75;2.50;;;2.40;99.90;;;;;;4996601;28;20264;-85
2021/12/20 05:49:51;;;;;;;13.77;2.60;;;2.50;99.90;;;;;;5014921;28;20049;-85
2021/12/20 05:52:18;;;;;;;8.90;2.00;;;2.50;99.90;;;;;;5000587;28;20030;-84
2021/12/20 05:54:44;;;;;;;17.42;2.53;;;2.50;99.90;;;;;;5014973;28;20504;-84
2021/12/20 05:57:10;;;;;;;15.10;2.40;;;2.50;99.90;;;;;;5014130;28;20045;-84
2021/12/20 05:59:36;;;;;;;12.63;2.33;;;2.40;99.90;;;;;;5019729;28;20507;-84
2021/12/20 06:02:02;;;;;;;11.35;2.35;;;2.30;99.90;;;;;;5018870;28;20037;-84
2021/12/20 06:04:31;;;;;;;10.90;2.08;;;2.40;99.90;;;;;;5020986;28;20083;-85
2021/12/20 06:06:56;;;;;;;12.02;1.85;;;2.30;99.90;;;;;;5018338;28;20443;-85
2021/12/20 06:09:22;;;;;;;13.02;2.78;;;2.30;99.90;;;;;;5007492;28;20038;-85
2021/12/20 06:11:48;;;;;;;15.52;2.63;;;2.20;99.90;;;;;;5018277;28;20026;-85
2021/12/20 06:14:14;;;;;;;14.98;3.03;;;2.20;99.90;;;;;;4997424;28;20042;-85
2021/12/20 06:16:39;;;;;;;20.92;2.75;;;2.20;99.90;;;;;;5003558;28;20069;-84
2021/12/20 06:19:05;;;;;;;13.05;3.08;;;2.10;99.90;;;;;;5001126;28;20033;-85
2021/12/20 06:21:31;;;;;;;11.32;2.40;;;2.20;99.90;;;;;;5014243;28;20052;-85
2021/12/20 06:23:57;;;;;;;11.60;2.95;;;2.10;99.90;;;;;;5005439;28;20170;-84
2021/12/20 06:26:23;;;;;;;12.07;2.38;;;2.10;99.90;;;;;;5017215;28;20512;-85
2021/12/20 06:28:51;;;;;;;14.10;2.10;;;2.10;99.90;;;;;;5003462;28;20128;-84
2021/12/20 06:31:17;;;;;;;15.30;2.70;;;2.00;99.90;;;;;;5003177;28;20073;-85
2021/12/20 06:33:43;;;;;;;11.90;2.70;;;2.00;99.90;;;;;;5005587;28;20041;-85
2021/12/20 06:36:09;;;;;;;13.00;2.60;;;2.00;99.90;;;;;;5016335;28;20145;-84
2021/12/20 06:38:44;;;;;;;14.55;2.38;;;1.90;99.90;;;;;;5017364;28;20582;-84
2021/12/20 06:41:09;;;;;;;12.27;1.92;;;1.90;99.90;;;;;;5017930;28;20524;-84
2021/12/20 06:43:35;;;;;;;15.77;2.72;;;1.80;99.90;;;;;;5003007;28;20128;-84
2021/12/20 06:46:01;;;;;;;13.35;3.28;;;1.70;99.90;;;;;;5001730;28;20033;-83
2021/12/20 06:48:27;;;;;;;14.13;2.47;;;1.80;99.90;;;;;;4991644;28;20053;-84
2021/12/20 06:50:53;;;;;;;15.38;2.33;;;1.70;99.90;;;;;;5015234;28;20033;-84
2021/12/20 06:53:18;;;;;;;11.23;2.08;;;1.60;99.90;;;;;;5015431;28;20037;-84
2021/12/20 06:55:44;;;;;;;11.00;2.03;;;1.50;99.90;;;;;;5015039;28;20050;-83
2021/12/20 06:58:10;;;;;;;10.98;2.40;;;1.50;99.90;;;;;;5017456;28;20051;-84
2021/12/20 07:00:36;;;;;;;14.48;3.17;;;1.50;99.90;;;;;;5019636;28;20564;-84
2021/12/20 07:03:02;;;;;;;12.05;2.40;;;1.50;99.90;;;;;;5014596;28;20045;-84
2021/12/20 07:05:28;;;;;;;13.10;2.60;;;1.50;99.90;;;;;;4998997;28;20510;-84
2021/12/20 07:07:54;;;;;;;9.55;2.42;;;1.40;99.90;;;;;;5000717;28;20091;-84
2021/12/20 07:10:22;;;;;;;9.93;2.60;;;1.30;99.90;;;;;;5000277;28;20037;-84
2021/12/20 07:12:48;;;;;;;10.57;2.40;;;1.30;99.90;;;;;;5005439;28;20921;-84
2021/12/20 07:15:15;;;;;;;16.63;2.72;;;1.30;99.90;;;;;;5017576;28;20061;-84
2021/12/20 07:17:41;;;;;;;13.52;2.72;;;1.30;99.90;;;;;;5003467;28;20069;-84
2021/12/20 07:20:08;;;;;;;14.18;3.10;;;1.30;99.90;;;;;;5002380;28;20810;-84
2021/12/20 07:22:34;;;;;;;13.18;2.75;;;1.30;99.90;;;;;;5014213;28;20036;-84
2021/12/20 07:25:02;;;;;;;13.85;3.05;;;1.20;99.90;;;;;;5017358;28;20052;-84
2021/12/20 07:27:30;;;;;;;12.63;2.40;;;1.20;99.90;;;;;;5003875;28;20435;-84
2021/12/20 07:29:56;;;;;;;13.90;3.17;;;1.30;99.90;;;;;;5003820;28;20072;-84
2021/12/20 07:32:22;;;;;;;16.02;2.58;;;1.20;99.90;;;;;;5017499;28;20056;-84
2021/12/20 07:34:48;;;;;;;11.82;2.50;;;1.20;99.90;;;;;;5015221;28;20045;-84
2021/12/20 07:37:13;;;;;;;12.10;3.13;;;1.20;99.90;;;;;;5012000;28;20073;-84
2021/12/20 07:39:39;;;;;;;11.20;2.83;;;1.10;99.90;;;;;;5019208;28;20033;-84
2021/12/20 07:42:05;;;;;;;11.10;2.80;;;1.10;99.90;;;;;;5016557;28;20172;-84
2021/12/20 07:44:34;;;;;;;15.15;3.03;;;1.10;99.90;;;;;;5017843;28;20041;-83
2021/12/20 07:47:00;;;;;;;15.63;2.83;;;1.20;99.90;;;;;;5001929;28;20068;-83
2021/12/20 07:49:25;;;;;;;12.48;2.92;;;1.10;99.90;;;;;;5002380;28;20037;-83
2021/12/20 07:51:53;;;;;;;11.68;2.50;;;1.10;99.90;;;;;;5015454;28;20038;-84
2021/12/20 07:54:20;;;;;;;12.60;2.42;;;1.10;99.90;;;;;;5001956;28;20099;-84
2021/12/20 07:56:45;;;;;;;14.50;2.90;;;1.10;99.90;;;;;;5017054;28;20477;-83
2021/12/20 07:59:11;;;;;;;10.55;3.15;;;1.10;99.90;;;;;;5018013;28;20068;-83
2021/12/20 08:01:37;;;;;;;15.27;2.83;;;1.10;99.90;;;;;;5000902;28;20034;-83
2021/12/20 08:04:04;;;;;;;14.77;3.35;;;1.10;99.90;;;;;;5004118;28;20033;-83
2021/12/20 08:06:30;;;;;;;16.88;2.95;;;1.10;99.90;;;;;;5000603;28;20041;-84
2021/12/20 08:08:55;;;;;;;14.73;3.42;;;1.10;99.90;;;;;;5019323;28;20041;-83
2021/12/20 08:11:21;;;;;;;8.80;2.10;;;1.10;99.90;;;;;;5000320;28;20041;-84
2021/12/20 08:13:46;;;;;;;10.45;3.20;;;1.10;99.90;;;;;;5010998;28;20066;-84
2021/12/20 08:16:16;;;;;;;12.60;3.20;;;1.10;99.90;;;;;;5015008;28;20363;-83
2021/12/20 08:18:43;;;;;;;14.80;4.57;;;1.10;99.90;;;;;;5019462;28;20025;-83
2021/12/20 08:21:09;;;;;;;15.70;4.97;;;1.20;99.90;;;;;;5013176;28;20080;-83
2021/12/20 08:23:35;;;;;;;14.40;4.70;;;1.20;99.90;;;;;;5016310;28;20077;-83
2021/12/20 08:26:01;;;;;;;12.73;3.45;;;1.20;99.90;;;;;;5015938;28;20053;-83
2021/12/20 08:28:27;;;;;;;9.25;3.22;;;1.20;99.90;;;;;;5002200;28;20034;-84
2021/12/20 08:30:53;;;;;;;15.05;2.85;;;1.20;99.90;;;;;;5015388;28;20037;-83
2021/12/20 08:33:19;;;;;;;15.63;3.65;;;1.30;99.90;;;;;;4996855;28;20184;-84
2021/12/20 08:35:49;;;;;;;15.38;3.22;;;1.40;99.90;;;;;;5032163;28;20938;-84
2021/12/20 08:38:19;;;;;;;12.52;3.08;;;1.30;99.90;;;;;;5000386;28;20472;-84
2021/12/20 08:40:46;;;;;;;18.58;2.95;;;1.30;99.90;;;;;;5016482;28;20040;-83
2021/12/20 08:43:12;;;;;;;10.75;3.45;;;1.40;99.90;;;;;;5002832;28;20033;-83
2021/12/20 08:45:38;;;;;;;10.40;2.95;;;1.40;99.90;;;;;;5003254;28;20435;-83
2021/12/20 08:48:04;;;;;;;12.13;2.92;;;1.40;99.90;;;;;;5017890;28;20041;-83
2021/12/20 08:50:30;;;;;;;10.55;3.20;;;1.50;99.90;;;;;;4998633;28;20400;-83
2021/12/20 08:52:55;;;;;;;16.17;3.13;;;1.50;99.90;;;;;;5014560;28;20121;-83
2021/12/20 08:55:22;;;;;;;15.02;3.33;;;1.50;99.90;;;;;;5000070;28;20049;-83
2021/12/20 08:57:52;;;;;;;19.88;3.35;;;1.60;99.90;;;;;;5014997;28;20111;-83
2021/12/20 09:00:21;;;;;;;16.75;3.70;;;1.60;99.90;;;;;;5014247;28;20025;-84
2021/12/20 09:02:47;;;;;;;10.02;3.22;;;1.70;99.90;;;;;;5001443;28;20079;-83
2021/12/20 09:05:13;;;;;;;16.45;2.97;;;1.70;99.90;;;;;;5001326;28;20045;-84
2021/12/20 09:07:41;;;;;;;16.55;3.42;;;1.80;99.90;;;;;;5014784;28;20374;-83
2021/12/20 09:10:08;;;;;;;12.02;3.42;;;1.80;99.90;;;;;;5019085;28;20064;-83
2021/12/20 09:12:33;;;;;;;11.80;3.75;;;1.90;99.90;;;;;;5015294;28;20140;-84
2021/12/20 09:14:59;;;;;;;18.10;3.42;;;1.90;99.90;;;;;;5013546;28;20129;-84
2021/12/20 09:17:25;;;;;;;13.55;3.15;;;2.00;99.90;;;;;;5013403;28;20216;-84
2021/12/20 09:19:51;;;;;;;12.57;3.20;;;2.00;99.90;;;;;;5015893;28;20477;-84
2021/12/20 09:22:17;;;;;;;14.05;3.00;;;2.10;99.90;;;;;;5012582;28;20070;-83
2021/12/20 09:24:44;;;;;;;9.75;3.30;;;2.10;99.90;;;;;;4998990;28;20135;-84
2021/12/20 09:27:10;;;;;;;13.63;3.38;;;2.20;99.90;;;;;;5015012;28;20169;-84
2021/12/20 09:29:37;;;;;;;13.43;4.03;;;2.30;99.90;;;;;;5032980;28;20257;-84
2021/12/20 09:32:04;;;;;;;9.70;3.30;;;2.30;99.90;;;;;;5014526;28;20045;-84
2021/12/20 09:34:30;;;;;;;19.98;4.28;;;2.40;99.90;;;;;;5014489;28;20044;-84
2021/12/20 09:36:55;;;;;;;13.73;3.60;;;2.50;99.90;;;;;;4996259;28;20045;-84
2021/12/20 09:39:22;;;;;;;17.10;4.40;;;2.50;99.90;;;;;;4999699;28;20095;-85
2021/12/20 09:44:21;;;;;;;16.55;4.15;;;2.60;99.90;;;;;;5013191;28;20810;-85
2021/12/20 09:46:48;;;;;;;16.63;3.70;;;2.70;99.90;;;;;;5010141;28;20105;-84
2021/12/20 09:49:14;;;;;;;15.85;4.25;;;2.80;99.90;;;;;;5015863;28;20068;-84
2021/12/20 09:51:42;;;;;;;18.15;4.85;;;2.80;99.90;;;;;;5011792;28;20140;-83
2021/12/20 09:54:08;;;;;;;17.58;4.50;;;2.70;99.90;;;;;;5010855;28;20363;-84
2021/12/20 09:56:38;;;;;;;20.55;4.30;;;2.70;99.90;;;;;;5012506;28;20045;-84
2021/12/20 09:59:05;;;;;;;21.65;5.10;;;2.90;99.90;;;;;;4991920;28;20036;-84
2021/12/20 10:01:34;;;;;;;18.08;4.63;;;2.90;99.90;;;;;;5000837;28;20033;-84
2021/12/20 10:04:00;;;;;;;26.55;5.88;;;3.10;99.90;;;;;;5018561;28;20046;-83
2021/12/20 10:06:26;;;;;;;19.08;5.47;;;3.20;99.90;;;;;;4995268;28;20548;-84
2021/12/20 10:08:53;;;;;;;20.27;6.28;;;3.40;99.90;;;;;;5000649;28;20029;-84
2021/12/20 10:11:23;;;;;;;20.98;5.18;;;3.40;99.90;;;;;;5015723;28;20041;-84
2021/12/20 10:13:49;;;;;;;18.27;5.72;;;3.40;99.90;;;;;;4999933;28;20040;-84
2021/12/20 10:16:20;;;;;;;24.77;5.97;;;3.40;99.90;;;;;;5014072;28;20488;-84
2021/12/20 10:18:46;;;;;;;32.15;6.30;;;3.50;99.90;;;;;;5014516;28;20044;-84
2021/12/20 10:21:15;;;;;;;23.67;6.07;;;3.60;99.90;;;;;;4997755;28;20041;-84
2021/12/20 10:23:48;;;;;;;27.85;6.93;;;3.80;99.90;;;;;;4998602;28;20045;-84
2021/12/20 10:26:23;;;;;;;24.07;6.83;;;3.90;99.90;;;;;;5011228;28;20502;-83
2021/12/20 10:28:53;;;;;;;35.13;8.40;;;3.90;99.90;;;;;;5000778;28;20421;-84
2021/12/20 10:31:25;;;;;;;23.35;6.70;;;4.10;99.90;;;;;;5013271;28;20053;-84
2021/12/20 10:33:56;;;;;;;23.95;6.82;;;4.20;99.90;;;;;;5014976;28;20068;-84
2021/12/20 10:36:23;;;;;;;22.42;7.18;;;4.30;99.90;;;;;;4993210;28;20370;-83
2021/12/20 10:38:57;;;;;;;26.55;6.43;;;4.40;99.90;;;;;;5013325;28;20514;-83
2021/12/20 10:41:36;;;;;;;20.90;6.95;;;4.40;99.90;;;;;;5000980;28;20550;-83
2021/12/20 10:44:14;;;;;;;26.38;7.10;;;4.40;99.90;;;;;;5016067;28;20043;-84
2021/12/20 10:46:56;;;;;;;25.55;7.38;;;4.40;99.90;;;;;;5015848;28;20860;-84
2021/12/20 10:49:27;;;;;;;31.35;6.80;;;4.40;99.90;;;;;;5017298;28;20051;-84
2021/12/20 10:51:54;;;;;;;25.27;6.95;;;4.40;99.90;;;;;;5001980;28;20052;-83
2021/12/20 10:54:22;;;;;;;27.42;6.35;;;4.60;99.90;;;;;;5005995;28;20342;-84
2021/12/20 10:56:55;;;;;;;23.75;6.25;;;4.70;99.90;;;;;;5004601;28;21110;-84
2021/12/20 10:59:23;;;;;;;27.30;6.70;;;4.70;99.90;;;;;;5003514;28;20053;-84
2021/12/20 11:04:40;;;;;;;21.92;5.90;;;4.80;99.90;;;;;;5018850;28;20145;-84
2021/12/20 11:10:07;;;;;;;27.60;6.70;;;4.90;99.90;;;;;;5034136;28;20530;-83
2021/12/20 11:12:34;;;;;;;21.17;5.82;;;5.00;99.90;;;;;;5018430;28;20099;-83
2021/12/20 11:15:09;;;;;;;20.30;7.25;;;5.00;99.90;;;;;;5001937;28;20404;-84
2021/12/20 11:17:40;;;;;;;19.80;6.10;;;5.00;99.90;;;;;;5016084;28;20029;-83
2021/12/20 11:20:07;;;;;;;27.75;6.40;;;5.10;99.90;;;;;;5015957;28;20057;-84
2021/12/20 11:22:33;;;;;;;24.30;6.18;;;5.00;99.90;;;;;;4988690;28;20152;-83
2021/12/20 11:25:08;;;;;;;23.95;7.07;;;5.00;99.90;;;;;;5016383;28;20050;-83
2021/12/20 11:27:51;;;;;;;27.10;5.75;;;5.10;99.90;;;;;;5002724;28;20551;-83
2021/12/20 11:30:19;;;;;;;22.08;5.30;;;5.10;99.90;;;;;;5004072;28;20186;-84
2021/12/20 11:32:47;;;;;;;15.98;4.47;;;5.20;99.90;;;;;;5020383;28;20041;-84
2021/12/20 11:35:15;;;;;;;19.48;5.25;;;5.30;99.90;;;;;;5003944;28;20188;-83
2021/12/20 11:37:42;;;;;;;18.48;4.53;;;5.20;99.90;;;;;;5000652;28;20338;-84
2021/12/20 11:40:10;;;;;;;16.75;4.18;;;5.20;99.90;;;;;;5000666;28;20026;-83
2021/12/20 11:42:39;;;;;;;22.67;5.65;;;5.10;99.90;;;;;;5018214;28;20037;-84
2021/12/20 11:45:07;;;;;;;17.60;4.40;;;5.10;99.90;;;;;;5003647;28;20079;-83
2021/12/20 11:47:57;;;;;;;15.02;4.25;;;5.20;99.90;;;;;;5008855;28;20075;-83
2021/12/20 11:50:31;;;;;;;16.27;4.03;;;5.10;99.90;;;;;;5014482;28;20132;-84
2021/12/20 11:53:11;;;;;;;14.97;3.40;;;5.10;99.90;;;;;;5016711;28;20115;-83
2021/12/20 11:55:43;;;;;;;14.10;4.00;;;5.10;99.90;;;;;;5019912;28;20115;-83
2021/12/20 11:58:18;;;;;;;18.02;3.63;;;5.10;99.90;;;;;;5019272;28;20152;-83
2021/12/20 12:00:52;;;;;;;14.80;2.97;;;5.10;99.90;;;;;;5001734;28;20037;-83
2021/12/20 12:03:21;;;;;;;13.65;3.65;;;5.20;99.90;;;;;;5000422;28;20155;-83
2021/12/20 12:05:59;;;;;;;12.50;2.90;;;5.20;99.90;;;;;;5002386;28;20367;-84
2021/12/20 12:08:27;;;;;;;13.52;3.92;;;5.10;99.90;;;;;;4998355;28;20152;-84
2021/12/20 12:11:06;;;;;;;13.73;3.30;;;5.10;99.90;;;;;;5016736;28;22688;-83
2021/12/20 12:13:46;;;;;;;12.13;2.80;;;5.10;99.90;;;;;;5002047;28;20389;-83
2021/12/20 12:16:27;;;;;;;12.10;3.25;;;5.20;99.90;;;;;;5032538;28;20535;-83
2021/12/20 12:18:54;;;;;;;11.68;3.47;;;5.20;99.90;;;;;;5013553;28;20045;-83
2021/12/20 12:21:40;;;;;;;10.68;3.10;;;5.20;99.90;;;;;;5009481;28;20073;-84
2021/12/20 12:24:14;;;;;;;10.75;3.17;;;5.20;99.90;;;;;;5002671;28;20048;-84
2021/12/20 12:26:47;;;;;;;5.50;2.47;;;5.20;99.90;;;;;;5016112;28;20133;-84
2021/12/20 12:29:22;;;;;;;11.73;2.38;;;5.20;99.90;;;;;;5018313;28;20289;-84
2021/12/20 12:32:00;;;;;;;10.77;2.40;;;5.20;99.90;;;;;;5002246;28;20155;-83
2021/12/20 12:34:42;;;;;;;7.28;2.17;;;5.30;99.90;;;;;;5018344;28;20391;-84
2021/12/20 12:37:24;;;;;;;13.15;3.00;;;5.20;99.90;;;;;;5007047;28;20564;-84
2021/12/20 12:39:50;;;;;;;11.50;2.33;;;5.30;99.90;;;;;;5034180;28;20038;-84
2021/12/20 12:42:16;;;;;;;10.93;2.22;;;5.30;99.90;;;;;;5016762;28;20041;-84
2021/12/20 12:44:50;;;;;;;12.07;2.47;;;5.30;99.90;;;;;;5000061;28;20030;-83
2021/12/20 12:47:32;;;;;;;;;;;5.30;99.90;;;;;;4998314;28;20044;-82
2021/12/20 12:49:59;;;;;;;5.72;1.67;;;5.30;99.90;;;;;;5018442;28;19987;-84
2021/12/20 12:52:25;;;;;;;9.85;2.15;;;5.30;99.90;;;;;;4994185;28;20526;-84
2021/12/20 12:54:56;;;;;;;9.65;2.88;;;5.30;99.90;;;;;;5001550;28;20034;-83
2021/12/20 12:57:22;;;;;;;6.68;1.83;;;5.40;99.90;;;;;;4999769;28;20076;-84
2021/12/20 12:59:47;;;;;;;7.93;1.65;;;5.40;99.90;;;;;;5003802;28;20112;-84
2021/12/20 13:02:25;;;;;;;8.73;1.73;;;5.40;99.90;;;;;;5017435;28;20591;-84
2021/12/20 13:05:06;;;;;;;5.47;1.90;;;5.40;99.90;;;;;;5013523;28;20325;-84
2021/12/20 13:07:35;;;;;;;8.73;2.50;;;5.40;99.90;;;;;;5014434;28;20515;-84
2021/12/20 13:10:05;;;;;;;6.18;1.65;;;5.50;99.90;;;;;;5001244;28;20092;-84
2021/12/20 13:15:22;;;;;;;7.05;1.58;;;5.50;99.90;;;;;;5032458;28;20042;-84
2021/12/20 13:17:50;;;;;;;8.07;2.13;;;5.50;99.90;;;;;;5035883;28;20423;-83